Wattensaw, Arkansas
Current Conditions -  °F | °C
As of 9:58 AM on Saturday 25 Oct 2014 (Local Time) from KLRF Reporting Station
Clear Clear  
Wind Chill: 69°   Ceiling: Unl
Heat Index: 69°   Visibility: 10mi
Dew Point: 61°   Wind: 5mph
Humidity: 73%   Direction: 260°W
Pressure: 30.12"   Gusts: NA
Location:  34.7557°N, 91.9476°W
Report Text: KLRF 251458Z AUTO 26004KT 10SM CLR 21/16 A3012 RMK AO2 SLP201 T02080159 53004
Loading
Personal Weather Stations






























Interactive Weather Map
Tropical Storm Tracking
New forecast layout! Learn more

10-Day Weather Forecast

Advertisements
Track Severe Weather on mobile